createdAt,value
2022-10-30T00:01:26.059Z,69.66
2022-10-30T00:03:53.459Z,69.29
2022-10-30T00:06:20.004Z,68.95
2022-10-30T00:08:46.753Z,68.71
2022-10-30T00:11:16.325Z,68.94
2022-10-30T00:13:44.886Z,69.61
2022-10-30T00:16:17.076Z,69.58
2022-10-30T00:18:44.377Z,69.63
2022-10-30T00:21:22.191Z,69.69
2022-10-30T00:23:52.567Z,69.09
2022-10-30T00:26:21.353Z,69.52
2022-10-30T00:28:52.943Z,69.94
2022-10-30T00:31:24.886Z,69.88
2022-10-30T00:33:53.316Z,70.00
2022-10-30T00:36:21.051Z,69.38
2022-10-30T00:38:47.863Z,69.20
2022-10-30T00:41:21.418Z,70.08
2022-10-30T00:43:49.851Z,70.34
2022-10-30T00:46:35.483Z,69.89
2022-10-30T00:49:12.756Z,69.96
2022-10-30T00:51:43.497Z,70.21
2022-10-30T00:54:21.968Z,70.28
2022-10-30T00:56:51.384Z,70.34
2022-10-30T00:59:27.544Z,69.79
2022-10-30T01:01:58.191Z,69.90
2022-10-30T01:04:30.235Z,69.62
2022-10-30T01:07:00.162Z,69.69
2022-10-30T01:09:26.799Z,69.28
2022-10-30T01:11:54.932Z,69.47
2022-10-30T01:14:22.129Z,69.71
2022-10-30T01:17:26.634Z,69.49
2022-10-30T01:20:11.738Z,68.88
2022-10-30T01:22:59.853Z,69.13
2022-10-30T01:25:40.768Z,69.49
2022-10-30T01:28:28.219Z,69.16
2022-10-30T01:31:22.665Z,68.89
2022-10-30T01:34:26.280Z,69.13
2022-10-30T01:37:10.647Z,69.54
2022-10-30T01:39:40.301Z,69.58
2022-10-30T01:42:30.753Z,69.45
2022-10-30T01:44:57.748Z,69.22
2022-10-30T01:47:43.872Z,68.96
2022-10-30T01:50:25.816Z,69.32
2022-10-30T01:52:58.685Z,69.46
2022-10-30T01:56:06.141Z,69.51
2022-10-30T01:59:17.390Z,68.99
2022-10-30T02:01:45.331Z,68.81
2022-10-30T02:04:14.324Z,69.20
2022-10-30T02:06:47.654Z,68.73
2022-10-30T02:09:17.770Z,68.90
2022-10-30T02:11:46.588Z,68.46
2022-10-30T02:14:25.540Z,68.68
2022-10-30T02:16:55.336Z,68.75
2022-10-30T02:19:25.258Z,68.44
2022-10-30T02:21:55.052Z,68.46
2022-10-30T02:24:22.803Z,68.43
2022-10-30T02:26:49.478Z,67.75
2022-10-30T02:29:16.178Z,68.04
2022-10-30T02:31:43.086Z,67.79
2022-10-30T02:34:09.715Z,67.88
2022-10-30T02:36:36.273Z,68.34
2022-10-30T02:39:10.101Z,67.41
2022-10-30T02:41:37.030Z,67.21
2022-10-30T02:44:07.486Z,67.71
2022-10-30T02:46:35.751Z,67.58
2022-10-30T02:49:03.108Z,67.96
2022-10-30T02:51:33.201Z,67.62
2022-10-30T02:54:03.333Z,68.42
2022-10-30T02:56:38.800Z,68.70
2022-10-30T02:59:05.450Z,68.30
2022-10-30T03:01:34.371Z,68.42
2022-10-30T03:04:04.504Z,67.56
2022-10-30T03:06:32.473Z,67.80
2022-10-30T03:08:59.254Z,67.78
2022-10-30T03:11:26.562Z,67.83
2022-10-30T03:13:54.937Z,67.50
2022-10-30T03:16:24.894Z,67.53
2022-10-30T03:18:54.461Z,67.46
2022-10-30T03:21:23.104Z,67.35
2022-10-30T03:23:53.007Z,67.33
2022-10-30T03:26:20.771Z,67.84
2022-10-30T03:28:48.490Z,68.05
2022-10-30T03:31:18.038Z,68.00
2022-10-30T03:33:45.571Z,67.95
2022-10-30T03:36:16.454Z,68.00
2022-10-30T03:38:43.483Z,67.91
2022-10-30T03:41:10.681Z,68.19
2022-10-30T03:43:37.357Z,67.44
2022-10-30T03:46:04.860Z,67.89
2022-10-30T03:48:31.781Z,67.76
2022-10-30T03:51:00.156Z,67.83
2022-10-30T03:53:28.783Z,67.76
2022-10-30T03:56:00.810Z,67.75
2022-10-30T03:58:32.053Z,67.73
2022-10-30T04:01:03.457Z,67.79
2022-10-30T04:03:34.904Z,68.06
2022-10-30T04:06:01.613Z,68.21
2022-10-30T04:08:29.446Z,67.61
2022-10-30T04:10:56.482Z,67.61
2022-10-30T04:13:23.394Z,67.77
2022-10-30T04:15:55.908Z,67.51
2022-10-30T04:18:29.373Z,67.08
2022-10-30T04:20:56.267Z,67.13
2022-10-30T04:23:26.101Z,67.28
2022-10-30T04:25:58.025Z,67.17
2022-10-30T04:28:24.868Z,66.82
2022-10-30T04:30:52.661Z,67.41
2022-10-30T04:33:19.301Z,67.36
2022-10-30T04:35:46.093Z,67.27
2022-10-30T04:38:15.028Z,67.57
2022-10-30T04:40:43.408Z,67.00
2022-10-30T04:43:11.367Z,67.08
2022-10-30T04:45:44.831Z,66.78
2022-10-30T04:48:14.512Z,67.12
2022-10-30T04:50:41.808Z,66.92
2022-10-30T04:53:15.310Z,67.10
2022-10-30T04:55:44.400Z,66.57
2022-10-30T04:58:12.341Z,66.62
2022-10-30T05:00:41.764Z,66.54
2022-10-30T05:03:17.507Z,66.77
2022-10-30T05:05:44.648Z,66.53
2022-10-30T05:08:11.298Z,66.34
2022-10-30T05:10:41.417Z,66.89
2022-10-30T05:13:11.881Z,66.60
2022-10-30T05:15:38.593Z,66.26
2022-10-30T05:18:05.399Z,66.63
2022-10-30T05:20:37.802Z,66.86
2022-10-30T05:23:04.568Z,67.11
2022-10-30T05:25:34.389Z,66.89
2022-10-30T05:28:03.224Z,66.30
2022-10-30T05:30:33.794Z,66.59
2022-10-30T05:33:03.961Z,66.42
2022-10-30T05:35:35.051Z,66.36
2022-10-30T05:38:05.988Z,66.73
2022-10-30T05:40:33.642Z,66.89
2022-10-30T05:43:01.442Z,66.97
2022-10-30T05:45:40.270Z,66.53
2022-10-30T05:48:07.162Z,66.21
2022-10-30T05:50:40.709Z,66.35
2022-10-30T05:53:08.030Z,66.04
2022-10-30T05:55:37.734Z,65.79
2022-10-30T05:58:09.579Z,65.95
2022-10-30T06:00:37.028Z,66.22
2022-10-30T06:03:10.616Z,66.06
2022-10-30T06:05:38.022Z,65.65
2022-10-30T06:08:10.883Z,65.10
2022-10-30T06:10:55.190Z,64.96
2022-10-30T06:13:22.012Z,65.86
2022-10-30T06:15:49.906Z,66.13
2022-10-30T06:18:20.703Z,65.11
2022-10-30T06:20:48.903Z,65.49
2022-10-30T06:23:15.691Z,65.06
2022-10-30T06:25:42.544Z,65.52
2022-10-30T06:28:13.720Z,65.45
2022-10-30T06:30:45.092Z,64.86
2022-10-30T06:33:11.907Z,64.47
2022-10-30T06:35:38.626Z,64.78
2022-10-30T06:38:05.680Z,64.35
2022-10-30T06:40:35.202Z,64.74
2022-10-30T06:43:02.126Z,64.20
2022-10-30T06:45:29.144Z,65.07
2022-10-30T06:47:56.640Z,65.55
2022-10-30T06:50:24.547Z,64.92
2022-10-30T06:52:56.999Z,65.08
2022-10-30T06:55:23.735Z,65.20
2022-10-30T06:57:55.240Z,64.61
2022-10-30T07:00:22.397Z,65.09
2022-10-30T07:03:00.173Z,64.90
2022-10-30T07:05:27.578Z,64.80
2022-10-30T07:07:56.976Z,64.76
2022-10-30T07:10:23.630Z,64.69
2022-10-30T07:12:55.370Z,64.28
2022-10-30T07:15:23.109Z,64.04
2022-10-30T07:17:58.916Z,63.50
2022-10-30T07:20:30.865Z,63.17
2022-10-30T07:23:01.090Z,63.74
2022-10-30T07:25:28.352Z,64.83
2022-10-30T07:27:58.939Z,64.81
2022-10-30T07:33:05.845Z,64.53
2022-10-30T07:35:35.010Z,64.63
2022-10-30T07:38:06.839Z,63.90
2022-10-30T07:40:34.319Z,64.76
2022-10-30T07:43:06.713Z,64.52
2022-10-30T07:45:36.480Z,64.19
2022-10-30T07:48:03.504Z,64.79
2022-10-30T07:50:30.687Z,64.08
2022-10-30T07:52:58.685Z,63.19
2022-10-30T07:55:32.091Z,63.29
2022-10-30T07:58:02.490Z,61.70
2022-10-30T08:00:36.466Z,61.46
2022-10-30T08:03:10.595Z,60.63
2022-10-30T08:05:37.462Z,60.49
2022-10-30T08:08:06.185Z,59.92
2022-10-30T08:10:33.049Z,59.22
2022-10-30T08:13:01.359Z,59.08
2022-10-30T08:15:29.404Z,58.28
2022-10-30T08:17:57.009Z,58.23
2022-10-30T08:20:24.831Z,57.31
2022-10-30T08:22:54.191Z,56.89
2022-10-30T08:25:24.439Z,57.19
2022-10-30T08:27:55.980Z,56.61
2022-10-30T08:30:24.397Z,56.01
2022-10-30T08:32:51.003Z,55.35
2022-10-30T08:35:21.310Z,53.80
2022-10-30T08:37:59.325Z,53.25
2022-10-30T08:40:31.796Z,53.36
2022-10-30T08:43:02.880Z,53.21
2022-10-30T08:45:31.243Z,53.55
2022-10-30T08:48:03.551Z,53.13
2022-10-30T08:50:31.796Z,52.85
2022-10-30T08:53:10.038Z,51.81
2022-10-30T08:55:43.177Z,51.50
2022-10-30T08:58:15.370Z,51.38
2022-10-30T09:00:42.097Z,51.00
2022-10-30T09:03:08.885Z,50.66
2022-10-30T09:05:37.404Z,50.98
2022-10-30T09:08:04.208Z,50.67
2022-10-30T09:10:34.568Z,50.18
2022-10-30T09:13:06.160Z,49.77
2022-10-30T09:15:34.251Z,48.67
2022-10-30T09:18:04.773Z,48.75
2022-10-30T09:23:24.953Z,49.15
2022-10-30T09:25:57.319Z,49.27
2022-10-30T09:28:24.051Z,48.90
2022-10-30T09:30:56.533Z,48.42
2022-10-30T09:33:23.937Z,48.38
2022-10-30T09:35:58.294Z,47.87
2022-10-30T09:38:25.232Z,48.26
2022-10-30T09:40:58.416Z,48.32
2022-10-30T09:43:44.444Z,47.61
2022-10-30T09:46:39.430Z,48.02
2022-10-30T09:52:15.599Z,47.83
2022-10-30T09:54:44.981Z,47.54
2022-10-30T09:57:19.469Z,46.71
2022-10-30T10:00:18.327Z,45.96
2022-10-30T10:03:23.790Z,45.55
2022-10-30T10:06:02.503Z,45.66
2022-10-30T10:08:36.690Z,45.97
2022-10-30T10:11:14.286Z,45.60
2022-10-30T10:14:14.120Z,44.71
2022-10-30T10:16:42.383Z,44.25
2022-10-30T10:19:33.205Z,43.72
2022-10-30T10:22:02.564Z,43.99
2022-10-30T10:24:34.606Z,43.95
2022-10-30T10:27:24.131Z,43.48
2022-10-30T10:30:29.316Z,43.27
2022-10-30T10:33:26.344Z,42.25
2022-10-30T10:36:10.205Z,42.74
2022-10-30T10:38:52.977Z,43.01
2022-10-30T10:41:56.415Z,42.81
2022-10-30T10:44:46.056Z,43.19
2022-10-30T10:47:35.677Z,42.33
2022-10-30T10:50:11.684Z,42.53
2022-10-30T10:52:43.734Z,42.58
2022-10-30T10:55:18.673Z,42.55
2022-10-30T10:57:51.997Z,42.55
2022-10-30T11:00:23.040Z,43.09
2022-10-30T11:03:03.660Z,43.97
2022-10-30T11:05:45.352Z,44.17
2022-10-30T11:08:21.303Z,43.98
2022-10-30T11:10:51.804Z,44.58
2022-10-30T11:13:23.215Z,45.05
2022-10-30T11:16:05.149Z,45.43
2022-10-30T11:18:34.840Z,45.77
2022-10-30T11:21:10.767Z,45.72
2022-10-30T11:23:46.191Z,46.41
2022-10-30T11:26:22.698Z,45.76
2022-10-30T11:28:53.137Z,46.05
2022-10-30T11:31:35.156Z,46.27
2022-10-30T11:34:18.620Z,45.81
2022-10-30T11:36:50.745Z,45.73
2022-10-30T11:39:32.320Z,46.07
2022-10-30T11:41:58.776Z,46.83
2022-10-30T11:44:33.101Z,46.55
2022-10-30T11:47:00.656Z,46.64
2022-10-30T11:49:45.387Z,46.71
2022-10-30T11:52:15.632Z,46.92
2022-10-30T11:54:48.445Z,47.01
2022-10-30T11:57:24.077Z,47.59
2022-10-30T11:59:59.435Z,47.89
2022-10-30T12:02:41.485Z,47.87
2022-10-30T12:05:43.715Z,48.38
2022-10-30T12:08:22.256Z,48.22
2022-10-30T12:10:56.750Z,48.49
2022-10-30T12:13:25.126Z,48.68
2022-10-30T12:16:05.564Z,49.01
2022-10-30T12:18:33.694Z,48.58
2022-10-30T12:21:12.466Z,48.99
2022-10-30T12:23:50.965Z,48.44
2022-10-30T12:26:17.935Z,48.10
2022-10-30T12:29:01.525Z,48.51
2022-10-30T12:31:37.751Z,49.09
2022-10-30T12:34:29.618Z,49.49
2022-10-30T12:37:08.600Z,49.56
2022-10-30T12:39:47.625Z,49.65
2022-10-30T12:42:19.996Z,49.86
2022-10-30T12:45:06.276Z,49.85
2022-10-30T12:47:46.600Z,49.32
2022-10-30T12:50:13.331Z,49.87
2022-10-30T12:53:13.815Z,49.69
2022-10-30T12:55:47.589Z,49.89
2022-10-30T12:58:31.181Z,50.02
2022-10-30T13:01:18.100Z,50.50
2022-10-30T13:03:58.704Z,50.46
2022-10-30T13:07:03.808Z,50.41
2022-10-30T13:10:26.715Z,50.68
2022-10-30T13:13:02.517Z,50.67
2022-10-30T13:15:48.652Z,50.38
2022-10-30T13:18:36.405Z,50.02
2022-10-30T13:21:39.929Z,49.66
2022-10-30T13:24:24.886Z,50.02
2022-10-30T13:26:59.743Z,50.08
2022-10-30T13:29:48.347Z,50.39
2022-10-30T13:32:46.337Z,50.07
2022-10-30T13:35:43.257Z,50.13
2022-10-30T13:38:31.829Z,50.14
2022-10-30T13:41:07.725Z,50.23
2022-10-30T13:43:42.953Z,50.61
2022-10-30T13:46:30.912Z,50.41
2022-10-30T13:49:07.752Z,50.58
2022-10-30T13:51:42.488Z,50.82
2022-10-30T13:54:25.239Z,51.23
2022-10-30T13:56:55.135Z,50.91
2022-10-30T13:59:55.957Z,50.54
2022-10-30T14:02:55.160Z,49.86
2022-10-30T14:05:39.783Z,49.53
2022-10-30T14:08:46.532Z,49.59
2022-10-30T14:11:20.403Z,49.81
2022-10-30T14:13:56.193Z,50.16
2022-10-30T14:17:13.016Z,51.17
2022-10-30T14:20:10.169Z,51.18
2022-10-30T14:22:40.845Z,50.30
2022-10-30T14:25:18.336Z,50.32
2022-10-30T14:27:56.390Z,49.98
2022-10-30T14:30:23.362Z,50.30
2022-10-30T14:32:56.286Z,50.24
2022-10-30T14:35:39.816Z,50.15
2022-10-30T14:38:09.799Z,50.61
2022-10-30T14:40:42.038Z,50.09
2022-10-30T14:43:15.147Z,50.11
2022-10-30T14:45:49.605Z,50.75
2022-10-30T14:48:29.532Z,51.23
2022-10-30T14:51:48.675Z,51.59
2022-10-30T14:54:41.830Z,51.29
2022-10-30T14:57:51.164Z,51.10
2022-10-30T15:00:23.954Z,51.83
2022-10-30T15:03:21.475Z,51.68
2022-10-30T15:05:51.821Z,51.72
2022-10-30T15:08:22.206Z,53.35
2022-10-30T15:11:01.883Z,52.32
2022-10-30T15:13:28.621Z,53.73
2022-10-30T15:16:05.388Z,53.06
2022-10-30T15:18:33.116Z,53.11
2022-10-30T15:21:08.073Z,53.23
2022-10-30T15:23:37.256Z,54.02
2022-10-30T15:26:18.016Z,53.69
2022-10-30T15:28:50.559Z,53.75
2022-10-30T15:31:26.842Z,54.63
2022-10-30T15:33:55.835Z,54.68
2022-10-30T15:36:34.964Z,55.00
2022-10-30T15:39:13.715Z,54.92
2022-10-30T15:41:54.852Z,55.84
2022-10-30T15:44:28.020Z,55.54
2022-10-30T15:46:56.815Z,55.85
2022-10-30T15:49:48.907Z,56.37
2022-10-30T15:52:20.029Z,55.73
2022-10-30T15:54:52.083Z,56.60
2022-10-30T15:58:07.394Z,57.58
2022-10-30T16:00:38.037Z,57.88
2022-10-30T16:03:17.534Z,58.33
2022-10-30T16:05:52.984Z,58.64
2022-10-30T16:08:22.586Z,58.61
2022-10-30T16:10:53.968Z,58.74
2022-10-30T16:13:25.488Z,58.83
2022-10-30T16:15:52.354Z,58.92
2022-10-30T16:18:21.946Z,58.95
2022-10-30T16:20:54.752Z,58.92
2022-10-30T16:23:28.484Z,59.81
2022-10-30T16:25:57.225Z,59.55
2022-10-30T16:28:36.256Z,59.78
2022-10-30T16:31:06.571Z,60.06
2022-10-30T16:33:38.017Z,59.87
2022-10-30T16:36:13.007Z,59.76
2022-10-30T16:38:40.308Z,59.79
2022-10-30T16:41:24.114Z,60.16
2022-10-30T16:44:27.618Z,60.68
2022-10-30T16:47:12.099Z,61.04
2022-10-30T16:49:45.746Z,60.91
2022-10-30T16:52:20.295Z,60.72
2022-10-30T16:55:00.693Z,60.67
2022-10-30T16:57:30.476Z,60.67
2022-10-30T16:59:59.976Z,61.15
2022-10-30T17:02:31.616Z,61.33
2022-10-30T17:05:10.692Z,61.68
2022-10-30T17:07:39.180Z,62.03
2022-10-30T17:10:33.133Z,62.07
2022-10-30T17:13:35.841Z,61.96
2022-10-30T17:16:14.441Z,62.04
2022-10-30T17:18:42.849Z,62.09
2022-10-30T17:21:16.158Z,62.38
2022-10-30T17:23:54.134Z,62.07
2022-10-30T17:26:21.031Z,62.16
2022-10-30T17:28:52.306Z,62.41
2022-10-30T17:31:19.996Z,62.21
2022-10-30T17:34:16.652Z,62.49
2022-10-30T17:36:49.132Z,62.23
2022-10-30T17:39:16.596Z,62.14
2022-10-30T17:41:43.771Z,62.10
2022-10-30T17:44:19.858Z,62.17
2022-10-30T17:46:46.502Z,62.52
2022-10-30T17:49:33.609Z,62.77
2022-10-30T17:52:00.486Z,62.23
2022-10-30T17:54:27.403Z,62.45
2022-10-30T17:56:55.002Z,61.72
2022-10-30T17:59:26.754Z,61.41
2022-10-30T18:01:53.738Z,61.34
2022-10-30T18:04:21.623Z,62.23
2022-10-30T18:06:50.436Z,62.48
2022-10-30T18:09:17.321Z,62.99
2022-10-30T18:11:44.119Z,62.75
2022-10-30T18:14:11.924Z,63.13
2022-10-30T18:16:39.405Z,62.90
2022-10-30T18:19:10.316Z,63.00
2022-10-30T18:21:37.442Z,63.09
2022-10-30T18:24:10.617Z,63.04
2022-10-30T18:26:40.454Z,63.47
2022-10-30T18:29:13.072Z,63.23
2022-10-30T18:31:52.906Z,63.67
2022-10-30T18:34:21.702Z,63.72
2022-10-30T18:36:50.593Z,63.51
2022-10-30T18:39:17.288Z,64.05
2022-10-30T18:41:48.612Z,63.84
2022-10-30T18:44:17.529Z,64.03
2022-10-30T18:46:45.323Z,64.24
2022-10-30T18:49:12.649Z,64.37
2022-10-30T18:51:45.716Z,64.54
2022-10-30T18:54:15.489Z,64.67
2022-10-30T18:56:42.774Z,64.36
2022-10-30T18:59:09.683Z,64.22
2022-10-30T19:01:37.957Z,64.02
2022-10-30T19:04:10.134Z,63.86
2022-10-30T19:06:39.307Z,64.56
2022-10-30T19:09:06.820Z,64.52
2022-10-30T19:11:34.103Z,64.95
2022-10-30T19:14:02.315Z,65.22
2022-10-30T19:16:29.341Z,64.68
2022-10-30T19:18:56.267Z,64.70
2022-10-30T19:21:26.178Z,65.17
2022-10-30T19:23:54.602Z,65.28
2022-10-30T19:26:21.378Z,65.44
2022-10-30T19:28:50.903Z,65.35
2022-10-30T19:31:19.172Z,65.51
2022-10-30T19:33:52.897Z,65.50
2022-10-30T19:36:38.743Z,65.83
2022-10-30T19:39:21.660Z,65.63
2022-10-30T19:41:58.597Z,65.64
2022-10-30T19:44:34.622Z,65.57
2022-10-30T19:47:02.968Z,65.57
2022-10-30T19:49:37.675Z,65.33
2022-10-30T19:52:12.314Z,65.42
2022-10-30T19:54:45.050Z,65.83
2022-10-30T19:57:15.239Z,65.78
2022-10-30T19:59:44.742Z,66.06
2022-10-30T20:02:16.339Z,65.74
2022-10-30T20:04:44.326Z,66.00
2022-10-30T20:07:12.796Z,65.26
2022-10-30T20:09:40.486Z,66.20
2022-10-30T20:12:12.068Z,66.02
2022-10-30T20:14:39.224Z,66.33
2022-10-30T20:17:11.673Z,66.08
2022-10-30T20:19:44.836Z,65.76
2022-10-30T20:22:14.046Z,65.40
2022-10-30T20:24:46.982Z,65.06
2022-10-30T20:27:14.162Z,66.15
2022-10-30T20:29:49.478Z,66.05
2022-10-30T20:32:16.626Z,66.42
2022-10-30T20:34:43.351Z,66.44
2022-10-30T20:37:10.670Z,66.14
2022-10-30T20:39:37.663Z,66.60
2022-10-30T20:42:04.494Z,66.79
2022-10-30T20:44:31.222Z,66.95
2022-10-30T20:46:57.984Z,66.27
2022-10-30T20:49:25.569Z,65.92
2022-10-30T20:51:52.151Z,65.59
2022-10-30T20:54:23.711Z,65.85
2022-10-30T20:56:50.385Z,66.55
2022-10-30T20:59:17.726Z,66.65
2022-10-30T21:01:44.552Z,66.34
2022-10-30T21:04:15.394Z,66.88
2022-10-30T21:06:42.148Z,67.44
2022-10-30T21:09:09.704Z,66.67
2022-10-30T21:11:36.746Z,67.50
2022-10-30T21:14:04.110Z,67.41
2022-10-30T21:16:38.531Z,67.42
2022-10-30T21:19:05.230Z,67.39
2022-10-30T21:21:32.403Z,67.13
2022-10-30T21:24:02.314Z,67.22
2022-10-30T21:26:29.372Z,67.34
2022-10-30T21:28:56.636Z,67.68
2022-10-30T21:31:26.866Z,67.59
2022-10-30T21:33:54.777Z,67.98
2022-10-30T21:36:27.102Z,67.54
2022-10-30T21:38:59.194Z,67.86
2022-10-30T21:41:30.289Z,68.14
2022-10-30T21:43:58.779Z,67.99
2022-10-30T21:46:28.462Z,67.80
2022-10-30T21:48:56.166Z,67.50
2022-10-30T21:51:25.825Z,67.59
2022-10-30T21:53:54.522Z,67.76
2022-10-30T21:56:29.236Z,67.68
2022-10-30T21:58:57.251Z,67.58
2022-10-30T22:01:30.480Z,67.94
2022-10-30T22:04:00.150Z,67.78
2022-10-30T22:06:30.892Z,68.04
2022-10-30T22:09:00.295Z,68.08
2022-10-30T22:11:28.587Z,68.25
2022-10-30T22:13:57.898Z,68.21
2022-10-30T22:16:28.581Z,67.88
2022-10-30T22:18:56.688Z,67.97
2022-10-30T22:21:31.410Z,68.05
2022-10-30T22:24:03.240Z,67.57
2022-10-30T22:26:35.172Z,67.01
2022-10-30T22:29:02.078Z,67.27
2022-10-30T22:31:39.206Z,67.56
2022-10-30T22:34:06.026Z,67.62
2022-10-30T22:36:34.754Z,67.99
2022-10-30T22:39:07.816Z,67.82
2022-10-30T22:41:38.114Z,67.52
2022-10-30T22:44:08.200Z,67.56
2022-10-30T22:46:38.854Z,67.69
2022-10-30T22:49:07.078Z,67.83
2022-10-30T22:51:35.867Z,67.63
2022-10-30T22:54:08.192Z,67.25
2022-10-30T22:56:36.951Z,66.99
2022-10-30T22:59:06.670Z,67.24
2022-10-30T23:01:35.924Z,67.29
2022-10-30T23:04:04.596Z,67.44
2022-10-30T23:06:34.592Z,66.72
2022-10-30T23:09:04.545Z,66.21
2022-10-30T23:11:31.872Z,66.98
2022-10-30T23:14:03.632Z,67.64
2022-10-30T23:16:35.875Z,67.47
2022-10-30T23:19:04.646Z,67.50
2022-10-30T23:21:32.406Z,66.83
2022-10-30T23:23:59.817Z,66.90
2022-10-30T23:26:30.638Z,67.25
2022-10-30T23:29:00.696Z,66.97
2022-10-30T23:31:33.759Z,66.03
2022-10-30T23:34:03.476Z,66.04
2022-10-30T23:36:32.212Z,65.99
2022-10-30T23:39:01.596Z,65.69
2022-10-30T23:41:31.265Z,65.56
2022-10-30T23:44:05.243Z,65.72
2022-10-30T23:46:32.839Z,65.92
2022-10-30T23:48:59.985Z,66.88
2022-10-30T23:51:33.451Z,66.41
2022-10-30T23:54:00.346Z,66.34
2022-10-30T23:56:31.936Z,66.18
2022-10-30T23:58:58.995Z,65.79
